createdAt,value
2022-12-15T00:02:04.693Z,-8.82
2022-12-15T00:05:26.479Z,-8.87
2022-12-15T00:08:47.554Z,-8.82
2022-12-15T00:12:09.550Z,-8.71
2022-12-15T00:15:30.457Z,-8.61
2022-12-15T00:18:51.469Z,-8.47
2022-12-15T00:22:12.611Z,-8.36
2022-12-15T00:25:33.829Z,-8.29
2022-12-15T00:28:56.190Z,-8.28
2022-12-15T00:32:16.955Z,-8.19
2022-12-15T00:35:38.376Z,-8.10
2022-12-15T00:38:43.270Z,-8.04
2022-12-15T00:41:46.814Z,-7.97
2022-12-15T00:44:52.250Z,-7.90
2022-12-15T00:47:54.902Z,-7.96
2022-12-15T00:50:58.468Z,-7.87
2022-12-15T00:54:19.206Z,-7.84
2022-12-15T00:57:40.214Z,-7.78
2022-12-15T01:01:02.450Z,-7.77
2022-12-15T01:04:23.762Z,-7.76
2022-12-15T01:07:44.930Z,-7.67
2022-12-15T01:11:10.560Z,-7.73
2022-12-15T01:14:32.210Z,-7.66
2022-12-15T01:17:54.418Z,-7.70
2022-12-15T01:20:59.412Z,-7.65
2022-12-15T01:24:02.929Z,-7.61
2022-12-15T01:27:06.678Z,-7.59
2022-12-15T01:30:13.993Z,-7.51
2022-12-15T01:33:20.669Z,-7.46
2022-12-15T01:36:24.214Z,-7.28
2022-12-15T01:39:48.033Z,-7.33
2022-12-15T01:42:52.338Z,-7.28
2022-12-15T01:46:01.898Z,-7.20
2022-12-15T01:49:18.401Z,-7.15
2022-12-15T01:52:22.047Z,-7.13
2022-12-15T01:55:31.526Z,-7.13
2022-12-15T01:58:35.612Z,-7.14
2022-12-15T02:01:40.378Z,-7.15
2022-12-15T02:04:47.442Z,-7.16
2022-12-15T02:07:51.052Z,-7.19
2022-12-15T02:11:25.607Z,-7.09
2022-12-15T02:14:54.707Z,-7.10
2022-12-15T02:18:14.497Z,-7.15
2022-12-15T02:21:26.122Z,-7.10
2022-12-15T02:25:09.662Z,-7.20
2022-12-15T02:28:21.175Z,-7.22
2022-12-15T02:31:50.945Z,-7.26
2022-12-15T02:35:04.219Z,-7.23
2022-12-15T02:38:09.885Z,-7.27
2022-12-15T02:41:36.885Z,-7.34
2022-12-15T02:44:45.856Z,-7.29
2022-12-15T02:48:09.891Z,-7.31
2022-12-15T02:51:32.957Z,-7.30
2022-12-15T02:55:02.722Z,-7.25
2022-12-15T02:58:20.304Z,-7.27
2022-12-15T03:01:34.669Z,-7.25
2022-12-15T03:04:41.081Z,-7.26
2022-12-15T03:07:45.118Z,-7.26
2022-12-15T03:10:55.832Z,-7.20
2022-12-15T03:13:59.467Z,-7.18
2022-12-15T03:17:04.156Z,-7.07
2022-12-15T03:20:12.100Z,-6.98
2022-12-15T03:23:15.838Z,-7.05
2022-12-15T03:26:19.376Z,-6.92
2022-12-15T03:29:23.030Z,-6.84
2022-12-15T03:32:26.879Z,-6.88
2022-12-15T03:35:33.827Z,-6.87
2022-12-15T03:38:37.407Z,-6.88
2022-12-15T03:41:41.749Z,-6.88
2022-12-15T03:44:45.480Z,-6.89
2022-12-15T03:47:50.713Z,-6.92
2022-12-15T03:50:55.685Z,-6.85
2022-12-15T03:53:59.756Z,-6.79
2022-12-15T03:57:03.708Z,-6.85
2022-12-15T04:00:09.324Z,-6.83
2022-12-15T04:03:13.281Z,-6.90
2022-12-15T04:06:18.274Z,-6.94
2022-12-15T04:09:21.966Z,-6.78
2022-12-15T04:12:25.570Z,-6.93
2022-12-15T04:15:29.857Z,-7.00
2022-12-15T04:18:34.834Z,-7.03
2022-12-15T04:21:39.889Z,-6.99
2022-12-15T04:25:00.689Z,-7.08
2022-12-15T04:28:22.821Z,-7.11
2022-12-15T04:31:48.693Z,-7.19
2022-12-15T04:35:09.654Z,-7.16
2022-12-15T04:38:32.316Z,-7.20
2022-12-15T04:41:53.879Z,-7.18
2022-12-15T04:45:21.319Z,-7.19
2022-12-15T04:48:42.102Z,-7.15
2022-12-15T04:52:02.835Z,-7.13
2022-12-15T04:55:26.698Z,-7.16
2022-12-15T04:58:47.772Z,-7.08
2022-12-15T05:02:09.063Z,-6.97
2022-12-15T05:05:30.046Z,-7.01
2022-12-15T05:08:51.018Z,-7.02
2022-12-15T05:12:13.513Z,-6.96
2022-12-15T05:15:42.120Z,-7.09
2022-12-15T05:19:03.493Z,-7.13
2022-12-15T05:22:24.644Z,-7.13
2022-12-15T05:25:45.623Z,-7.20
2022-12-15T05:29:08.311Z,-7.26
2022-12-15T05:32:13.268Z,-7.32
2022-12-15T05:35:17.209Z,-7.28
2022-12-15T05:38:20.776Z,-7.22
2022-12-15T05:41:24.611Z,-7.21
2022-12-15T05:44:30.275Z,-7.26
2022-12-15T05:47:33.841Z,-7.28
2022-12-15T05:50:37.463Z,-7.21
2022-12-15T05:53:43.629Z,-7.24
2022-12-15T05:56:50.360Z,-7.22
2022-12-15T05:59:55.802Z,-7.21
2022-12-15T06:03:00.327Z,-7.20
2022-12-15T06:06:05.450Z,-7.24
2022-12-15T06:09:09.780Z,-7.04
2022-12-15T06:12:13.391Z,-7.00
2022-12-15T06:15:18.526Z,-7.10
2022-12-15T06:18:22.049Z,-7.24
2022-12-15T06:21:28.922Z,-7.22
2022-12-15T06:24:32.473Z,-7.28
2022-12-15T06:27:38.715Z,-7.36
2022-12-15T06:30:43.727Z,-7.28
2022-12-15T06:33:47.440Z,-7.23
2022-12-15T06:36:52.059Z,-7.21
2022-12-15T06:39:55.964Z,-7.13
2022-12-15T06:42:59.588Z,-7.01
2022-12-15T06:46:05.917Z,-7.08
2022-12-15T06:49:10.506Z,-6.97
2022-12-15T06:52:14.165Z,-7.05
2022-12-15T06:55:17.981Z,-7.08
2022-12-15T06:58:21.645Z,-7.08
2022-12-15T07:01:28.023Z,-6.99
2022-12-15T07:04:34.206Z,-6.97
2022-12-15T07:07:37.910Z,-6.97
2022-12-15T07:10:42.413Z,-6.96
2022-12-15T07:13:49.512Z,-6.92
2022-12-15T07:16:54.489Z,-6.91
2022-12-15T07:19:58.078Z,-6.94
2022-12-15T07:23:07.853Z,-6.92
2022-12-15T07:26:12.410Z,-6.91
2022-12-15T07:29:21.286Z,-6.92
2022-12-15T07:32:28.411Z,-6.86
2022-12-15T07:35:32.208Z,-6.84
2022-12-15T07:38:36.852Z,-6.80
2022-12-15T07:41:41.395Z,-6.79
2022-12-15T07:44:45.024Z,-6.73
2022-12-15T07:47:55.104Z,-6.70
2022-12-15T07:51:07.347Z,-6.64
2022-12-15T07:54:12.594Z,-6.59
2022-12-15T07:57:16.320Z,-6.61
2022-12-15T08:00:21.068Z,-6.58
2022-12-15T08:03:26.208Z,-6.51
2022-12-15T08:06:30.164Z,-6.44
2022-12-15T08:09:34.126Z,-6.28
2022-12-15T08:12:37.754Z,-6.32
2022-12-15T08:15:42.664Z,-6.28
2022-12-15T08:18:49.324Z,-6.31
2022-12-15T08:21:53.309Z,-6.18
2022-12-15T08:24:56.883Z,-6.04
2022-12-15T08:28:00.696Z,-5.86
2022-12-15T08:31:05.297Z,-5.65
2022-12-15T08:34:12.099Z,-5.52
2022-12-15T08:37:15.967Z,-5.37
2022-12-15T08:40:19.675Z,-5.19
2022-12-15T08:43:25.102Z,-5.01
2022-12-15T08:46:31.626Z,-4.90
2022-12-15T08:49:36.725Z,-4.84
2022-12-15T08:52:55.316Z,-4.76
2022-12-15T08:56:07.642Z,-4.61
2022-12-15T08:59:11.265Z,-4.58
2022-12-15T09:02:15.127Z,-4.53
2022-12-15T09:05:20.292Z,-4.44
2022-12-15T09:08:23.894Z,-4.40
2022-12-15T09:11:29.591Z,-4.22
2022-12-15T09:14:33.303Z,-4.18
2022-12-15T09:17:36.878Z,-4.10
2022-12-15T09:20:41.810Z,-4.06
2022-12-15T09:23:50.644Z,-4.01
2022-12-15T09:26:54.191Z,-3.95
2022-12-15T09:29:58.074Z,-3.85
2022-12-15T09:33:01.837Z,-3.73
2022-12-15T09:36:08.372Z,-3.63
2022-12-15T09:39:12.503Z,-3.49
2022-12-15T09:42:27.844Z,-3.41
2022-12-15T09:45:44.788Z,-3.40
2022-12-15T09:48:52.401Z,-3.33
2022-12-15T09:52:10.740Z,-3.17
2022-12-15T09:55:23.155Z,-3.14
2022-12-15T09:58:45.442Z,-3.05
2022-12-15T10:02:14.774Z,-2.94
2022-12-15T10:06:07.313Z,-2.81
2022-12-15T10:09:03.651Z,-2.63
2022-12-15T10:12:15.542Z,-2.37
2022-12-15T10:15:30.833Z,-2.21
2022-12-15T10:18:43.009Z,-2.05
2022-12-15T10:21:50.369Z,-1.98
2022-12-15T10:25:11.901Z,-1.96
2022-12-15T10:28:51.041Z,-1.98
2022-12-15T10:32:01.706Z,-1.99
2022-12-15T10:35:14.130Z,-1.93
2022-12-15T10:38:27.346Z,-1.88
2022-12-15T10:41:34.807Z,-1.90
2022-12-15T10:44:41.775Z,-1.70
2022-12-15T10:48:02.512Z,-1.59
2022-12-15T10:51:19.304Z,-1.44
2022-12-15T10:54:24.852Z,-1.23
2022-12-15T10:57:33.587Z,-1.08
2022-12-15T11:00:38.428Z,-1.06
2022-12-15T11:03:42.451Z,-1.10
2022-12-15T11:06:46.131Z,-1.14
2022-12-15T11:09:51.127Z,-1.30
2022-12-15T11:13:11.686Z,-1.36
2022-12-15T11:16:20.873Z,-1.33
2022-12-15T11:19:40.362Z,-1.32
2022-12-15T11:22:53.185Z,-1.37
2022-12-15T11:26:06.785Z,-1.33
2022-12-15T11:29:28.850Z,-1.27
2022-12-15T11:32:38.907Z,-1.19
2022-12-15T11:36:10.556Z,-1.08
2022-12-15T11:39:35.027Z,-1.08
2022-12-15T11:42:56.631Z,-1.10
2022-12-15T11:46:21.586Z,-1.13
2022-12-15T11:49:59.957Z,-1.09
2022-12-15T11:53:31.939Z,-1.08
2022-12-15T11:56:43.846Z,-1.09
2022-12-15T12:00:06.818Z,-0.97
2022-12-15T12:03:32.499Z,-0.95
2022-12-15T12:06:52.032Z,-0.93
2022-12-15T12:10:15.357Z,-0.91
2022-12-15T12:13:29.967Z,-0.89
2022-12-15T12:16:42.686Z,-0.83
2022-12-15T12:19:53.760Z,-0.76
2022-12-15T12:23:06.782Z,-0.73
2022-12-15T12:26:21.182Z,-0.77
2022-12-15T12:29:34.051Z,-0.77
2022-12-15T12:32:51.548Z,-0.64
2022-12-15T12:36:04.411Z,-0.80
2022-12-15T12:39:19.075Z,-0.76
2022-12-15T12:42:35.745Z,-0.79
2022-12-15T12:45:50.262Z,-0.78
2022-12-15T12:49:00.105Z,-0.74
2022-12-15T12:52:18.072Z,-0.82
2022-12-15T12:55:38.923Z,-0.77
2022-12-15T12:58:42.911Z,-0.78
2022-12-15T13:01:46.601Z,-0.82
2022-12-15T13:05:04.518Z,-0.88
2022-12-15T13:08:51.687Z,-0.89
2022-12-15T13:12:20.585Z,-0.90
2022-12-15T13:15:40.894Z,-0.89
2022-12-15T13:19:05.670Z,-0.91
2022-12-15T13:22:26.005Z,-0.88
2022-12-15T13:26:13.751Z,-0.80
2022-12-15T13:29:23.807Z,-0.92
2022-12-15T13:32:38.980Z,-0.70
2022-12-15T13:35:44.875Z,-0.62
2022-12-15T13:38:56.489Z,-0.63
2022-12-15T13:42:47.290Z,-0.75
2022-12-15T13:46:03.357Z,-0.70
2022-12-15T13:49:16.742Z,-0.78
2022-12-15T13:53:08.480Z,-0.77
2022-12-15T13:56:08.750Z,-0.90
2022-12-15T13:59:27.365Z,-0.84
2022-12-15T14:02:33.406Z,-0.92
2022-12-15T14:05:39.068Z,-0.82
2022-12-15T14:08:43.603Z,-0.89
2022-12-15T14:11:53.643Z,-1.05
2022-12-15T14:14:59.302Z,-1.07
2022-12-15T14:18:03.895Z,-1.10
2022-12-15T14:21:21.122Z,-1.10
2022-12-15T14:24:38.606Z,-1.10
2022-12-15T14:27:43.367Z,-1.10
2022-12-15T14:30:50.457Z,-1.17
2022-12-15T14:34:07.449Z,-1.07
2022-12-15T14:37:20.702Z,-1.23
2022-12-15T14:40:28.852Z,-1.32
2022-12-15T14:43:39.947Z,-1.31
2022-12-15T14:46:49.431Z,-1.44
2022-12-15T14:49:57.382Z,-1.50
2022-12-15T14:53:07.051Z,-1.60
2022-12-15T14:56:29.987Z,-1.56
2022-12-15T14:59:36.022Z,-1.78
2022-12-15T15:02:41.271Z,-1.68
2022-12-15T15:05:46.837Z,-1.75
2022-12-15T15:08:54.250Z,-1.84
2022-12-15T15:12:03.095Z,-1.83
2022-12-15T15:15:15.427Z,-2.04
2022-12-15T15:18:26.875Z,-2.17
2022-12-15T15:21:35.227Z,-2.17
2022-12-15T15:24:39.624Z,-2.17
2022-12-15T15:27:43.899Z,-2.26
2022-12-15T15:30:51.736Z,-2.28
2022-12-15T15:34:01.950Z,-2.32
2022-12-15T15:37:17.863Z,-2.22
2022-12-15T15:40:22.227Z,-2.21
2022-12-15T15:43:27.751Z,-2.24
2022-12-15T15:46:34.453Z,-2.39
2022-12-15T15:49:39.767Z,-2.46
2022-12-15T15:52:45.603Z,-2.60
2022-12-15T15:55:52.329Z,-2.65
2022-12-15T15:58:56.007Z,-2.54
2022-12-15T16:02:00.591Z,-2.69
2022-12-15T16:05:07.269Z,-2.86
2022-12-15T16:08:18.376Z,-2.91
2022-12-15T16:11:25.319Z,-2.80
2022-12-15T16:14:28.942Z,-2.96
2022-12-15T16:17:33.095Z,-3.04
2022-12-15T16:20:40.804Z,-3.11
2022-12-15T16:23:47.448Z,-3.13
2022-12-15T16:26:52.817Z,-3.18
2022-12-15T16:29:57.156Z,-3.22
2022-12-15T16:33:02.292Z,-3.22
2022-12-15T16:36:14.259Z,-3.24
2022-12-15T16:39:28.158Z,-3.38
2022-12-15T16:42:31.744Z,-3.41
2022-12-15T16:45:35.860Z,-3.49
2022-12-15T16:48:39.917Z,-3.34
2022-12-15T16:51:49.094Z,-3.35
2022-12-15T16:54:52.883Z,-3.47
2022-12-15T16:58:01.169Z,-3.47
2022-12-15T17:01:05.509Z,-3.49
2022-12-15T17:04:09.200Z,-3.50
2022-12-15T17:07:20.318Z,-3.66
2022-12-15T17:10:28.170Z,-3.53
2022-12-15T17:13:43.753Z,-3.64
2022-12-15T17:16:49.655Z,-3.69
2022-12-15T17:20:27.445Z,-3.60
2022-12-15T17:23:22.915Z,-3.67
2022-12-15T17:26:30.373Z,-3.65
2022-12-15T17:29:34.982Z,-3.60
2022-12-15T17:32:38.518Z,-3.58
2022-12-15T17:35:42.195Z,-3.60
2022-12-15T17:38:47.547Z,-3.71
2022-12-15T17:42:00.070Z,-3.60
2022-12-15T17:45:17.113Z,-3.38
2022-12-15T17:48:21.649Z,-3.50
2022-12-15T17:51:25.401Z,-3.39
2022-12-15T17:54:30.391Z,-3.48
2022-12-15T17:57:33.965Z,-3.56
2022-12-15T18:00:38.137Z,-3.61
2022-12-15T18:03:42.059Z,-3.49
2022-12-15T18:06:46.116Z,-3.56
2022-12-15T18:09:53.212Z,-3.70
2022-12-15T18:12:57.125Z,-3.69
2022-12-15T18:16:02.647Z,-3.66
2022-12-15T18:19:06.915Z,-3.74
2022-12-15T18:22:20.478Z,-3.72
2022-12-15T18:25:28.619Z,-3.88
2022-12-15T18:28:35.588Z,-3.89
2022-12-15T18:31:39.395Z,-3.97
2022-12-15T18:34:43.232Z,-3.84
2022-12-15T18:37:47.929Z,-3.99
2022-12-15T18:40:57.192Z,-4.10
2022-12-15T18:44:00.800Z,-4.15
2022-12-15T18:47:15.907Z,-4.20
2022-12-15T18:50:23.235Z,-4.21
2022-12-15T18:53:31.557Z,-4.27
2022-12-15T18:56:37.239Z,-4.31
2022-12-15T18:59:40.760Z,-4.34
2022-12-15T19:02:44.952Z,-4.32
2022-12-15T19:05:49.608Z,-4.37
2022-12-15T19:08:53.640Z,-4.33
2022-12-15T19:12:16.227Z,-4.29
2022-12-15T19:15:21.680Z,-4.28
2022-12-15T19:18:43.922Z,-4.29
2022-12-15T19:22:04.854Z,-4.22
2022-12-15T19:25:11.917Z,-4.28
2022-12-15T19:28:22.076Z,-4.25
2022-12-15T19:31:25.873Z,-4.40
2022-12-15T19:34:29.439Z,-4.51
2022-12-15T19:37:33.514Z,-4.49
2022-12-15T19:40:38.801Z,-4.45
2022-12-15T19:43:44.634Z,-4.56
2022-12-15T19:46:48.412Z,-4.49
2022-12-15T19:49:52.917Z,-4.52
2022-12-15T19:53:02.305Z,-4.49
2022-12-15T19:56:06.514Z,-4.53
2022-12-15T19:59:22.353Z,-4.54
2022-12-15T20:02:26.623Z,-4.59
2022-12-15T20:05:30.531Z,-4.51
2022-12-15T20:08:39.028Z,-4.40
2022-12-15T20:11:43.312Z,-4.52
2022-12-15T20:14:48.729Z,-4.46
2022-12-15T20:17:56.453Z,-4.66
2022-12-15T20:21:01.561Z,-4.66
2022-12-15T20:24:13.648Z,-4.56
2022-12-15T20:27:20.350Z,-4.59
2022-12-15T20:30:28.535Z,-4.60
2022-12-15T20:33:32.559Z,-4.56
2022-12-15T20:36:36.548Z,-4.49
2022-12-15T20:39:41.490Z,-4.44
2022-12-15T20:42:45.291Z,-4.32
2022-12-15T20:46:01.016Z,-4.23
2022-12-15T20:49:05.749Z,-4.22
2022-12-15T20:52:19.679Z,-3.92
2022-12-15T20:55:23.796Z,-4.03
2022-12-15T20:58:32.898Z,-4.08
2022-12-15T21:01:40.098Z,-4.06
2022-12-15T21:04:43.826Z,-4.07
2022-12-15T21:07:48.787Z,-4.02
2022-12-15T21:10:53.545Z,-4.00
2022-12-15T21:14:04.180Z,-3.92
2022-12-15T21:17:15.828Z,-3.96
2022-12-15T21:20:19.716Z,-3.97
2022-12-15T21:23:28.468Z,-4.01
2022-12-15T21:26:32.262Z,-4.07
2022-12-15T21:29:37.029Z,-4.19
2022-12-15T21:32:42.010Z,-4.19
2022-12-15T21:35:49.022Z,-4.23
2022-12-15T21:38:53.562Z,-4.36
2022-12-15T21:42:02.170Z,-4.51
2022-12-15T21:45:15.604Z,-4.57
2022-12-15T21:48:38.127Z,-4.58
2022-12-15T21:51:45.370Z,-4.59
2022-12-15T21:54:49.221Z,-4.61
2022-12-15T21:57:55.099Z,-4.72
2022-12-15T22:01:01.208Z,-4.79
2022-12-15T22:04:17.958Z,-4.82
2022-12-15T22:07:21.568Z,-4.87
2022-12-15T22:10:26.096Z,-4.91
2022-12-15T22:13:32.811Z,-4.98
2022-12-15T22:16:36.377Z,-5.03
2022-12-15T22:19:41.493Z,-5.03
2022-12-15T22:22:45.238Z,-5.06
2022-12-15T22:25:55.386Z,-5.10
2022-12-15T22:29:02.775Z,-5.10
2022-12-15T22:32:14.050Z,-5.12
2022-12-15T22:35:22.032Z,-5.12
2022-12-15T22:38:26.100Z,-5.17
2022-12-15T22:41:29.911Z,-5.14
2022-12-15T22:44:38.046Z,-5.20
2022-12-15T22:47:41.669Z,-5.24
2022-12-15T22:50:46.933Z,-5.29
2022-12-15T22:53:51.758Z,-5.41
2022-12-15T22:57:01.712Z,-5.45
2022-12-15T23:00:11.689Z,-5.41
2022-12-15T23:03:15.350Z,-5.49
2022-12-15T23:06:21.788Z,-5.60
2022-12-15T23:09:25.497Z,-5.59
2022-12-15T23:12:28.069Z,-5.62
2022-12-15T23:15:50.706Z,-5.63
2022-12-15T23:18:57.097Z,-5.74
2022-12-15T23:22:02.144Z,-5.75
2022-12-15T23:25:07.395Z,-5.72
2022-12-15T23:28:11.870Z,-5.73
2022-12-15T23:31:15.642Z,-5.75
2022-12-15T23:34:19.287Z,-5.77
2022-12-15T23:37:24.478Z,-5.80
2022-12-15T23:40:28.035Z,-5.80
2022-12-15T23:43:34.860Z,-5.80
2022-12-15T23:46:39.203Z,-5.83
2022-12-15T23:49:42.865Z,-5.74
2022-12-15T23:52:51.263Z,-5.71
2022-12-15T23:55:55.587Z,-5.61
2022-12-15T23:59:00.588Z,-5.57
